createdAt,value
2018-04-22T00:02:04.702Z,33.13
2018-04-22T00:04:33.948Z,29.37
2018-04-22T00:07:05.153Z,29.67
2018-04-22T00:09:37.020Z,36.90
2018-04-22T00:12:06.851Z,36.37
2018-04-22T00:14:36.056Z,30.13
2018-04-22T00:17:05.296Z,36.70
2018-04-22T00:19:36.602Z,35.70
2018-04-22T00:22:05.924Z,41.10
2018-04-22T00:24:36.392Z,33.17
2018-04-22T00:27:07.308Z,40.07
2018-04-22T00:29:39.947Z,33.13
2018-04-22T00:32:11.409Z,36.33
2018-04-22T00:34:41.300Z,34.80
2018-04-22T00:37:12.193Z,41.67
2018-04-22T00:42:28.197Z,37.40
2018-04-22T00:45:01.430Z,46.30
2018-04-22T00:47:31.079Z,45.10
2018-04-22T00:50:03.906Z,46.50
2018-04-22T00:52:33.110Z,47.83
2018-04-22T00:55:02.346Z,42.27
2018-04-22T00:57:31.530Z,40.93
2018-04-22T01:00:01.820Z,42.33
2018-04-22T01:02:31.093Z,45.70
2018-04-22T01:05:01.535Z,57.10
2018-04-22T01:07:30.922Z,46.67
2018-04-22T01:10:00.955Z,45.50
2018-04-22T01:12:30.961Z,48.30
2018-04-22T01:15:00.155Z,43.40
2018-04-22T01:17:29.282Z,41.07
2018-04-22T01:19:58.494Z,44.43
2018-04-22T01:22:27.671Z,43.60
2018-04-22T01:24:56.911Z,42.57
2018-04-22T01:27:26.111Z,45.07
2018-04-22T01:29:55.220Z,41.73
2018-04-22T01:32:24.448Z,41.87
2018-04-22T01:34:53.639Z,45.03
2018-04-22T01:37:22.749Z,45.60
2018-04-22T01:39:51.858Z,43.13
2018-04-22T01:42:21.061Z,45.33
2018-04-22T01:44:50.259Z,42.37
2018-04-22T01:47:19.835Z,49.47
2018-04-22T01:49:49.077Z,49.37
2018-04-22T01:52:18.284Z,43.00
2018-04-22T01:54:48.640Z,46.90
2018-04-22T01:57:19.003Z,47.23
2018-04-22T01:59:48.175Z,46.17
2018-04-22T02:02:17.353Z,51.27
2018-04-22T02:04:46.629Z,45.60
2018-04-22T02:07:15.802Z,52.50
2018-04-22T02:09:45.004Z,51.43
2018-04-22T02:12:14.309Z,53.73
2018-04-22T02:14:43.446Z,53.67
2018-04-22T02:17:13.406Z,51.27
2018-04-22T02:19:43.305Z,50.47
2018-04-22T02:22:13.142Z,54.83
2018-04-22T02:24:42.282Z,45.47
2018-04-22T02:27:11.462Z,44.83
2018-04-22T02:29:41.886Z,49.47
2018-04-22T02:32:11.195Z,55.73
2018-04-22T02:34:40.372Z,60.03
2018-04-22T02:37:09.538Z,56.13
2018-04-22T02:39:38.652Z,61.20
2018-04-22T02:42:08.326Z,59.97
2018-04-22T02:44:37.549Z,77.47
2018-04-22T02:47:06.770Z,40.90
2018-04-22T02:49:36.137Z,39.23
2018-04-22T02:52:06.246Z,38.10
2018-04-22T02:54:35.417Z,44.30
2018-04-22T02:57:04.553Z,55.63
2018-04-22T02:59:33.709Z,34.63
2018-04-22T03:02:02.877Z,37.37
2018-04-22T03:04:32.053Z,45.10
2018-04-22T03:07:01.181Z,42.93
2018-04-22T03:09:30.505Z,31.80
2018-04-22T03:11:59.658Z,36.33
2018-04-22T03:14:28.895Z,33.13
2018-04-22T03:16:58.012Z,33.93
2018-04-22T03:19:27.185Z,33.80
2018-04-22T03:21:56.576Z,34.17
2018-04-22T03:24:26.156Z,33.90
2018-04-22T03:26:55.285Z,23.00
2018-04-22T03:29:24.458Z,21.27
2018-04-22T03:31:53.625Z,24.50
2018-04-22T03:34:22.772Z,23.10
2018-04-22T03:36:52.789Z,20.97
2018-04-22T03:39:21.974Z,31.83
2018-04-22T03:41:51.158Z,23.63
2018-04-22T03:44:20.321Z,22.93
2018-04-22T03:46:49.455Z,28.47
2018-04-22T03:49:18.576Z,21.10
2018-04-22T03:51:47.738Z,21.90
2018-04-22T03:54:16.935Z,26.47
2018-04-22T03:56:46.300Z,24.60
2018-04-22T03:59:15.568Z,20.20
2018-04-22T04:01:45.509Z,32.23
2018-04-22T04:04:15.498Z,23.90
2018-04-22T04:06:44.674Z,28.67
2018-04-22T04:09:13.904Z,34.43
2018-04-22T04:11:43.197Z,26.10
2018-04-22T04:14:12.708Z,29.93
2018-04-22T04:16:42.012Z,24.10
2018-04-22T04:19:22.486Z,25.77
2018-04-22T04:22:03.130Z,23.37
2018-04-22T04:24:43.918Z,31.00
2018-04-22T04:27:24.290Z,25.83
2018-04-22T04:29:53.683Z,34.27
2018-04-22T04:32:22.874Z,26.17
2018-04-22T04:34:52.954Z,23.77
2018-04-22T04:37:22.163Z,29.77
2018-04-22T04:39:51.291Z,26.60
2018-04-22T04:42:20.488Z,24.60
2018-04-22T04:47:42.763Z,19.53
2018-04-22T04:50:11.919Z,22.67
2018-04-22T04:52:41.045Z,26.13
2018-04-22T04:55:10.421Z,23.23
2018-04-22T04:57:39.694Z,20.83
2018-04-22T05:00:09.732Z,22.07
2018-04-22T05:02:39.647Z,29.47
2018-04-22T05:05:09.725Z,24.17
2018-04-22T05:07:38.894Z,23.87
2018-04-22T05:10:08.127Z,25.17
2018-04-22T05:12:37.268Z,25.97
2018-04-22T05:15:06.610Z,24.17
2018-04-22T05:17:35.792Z,25.00
2018-04-22T05:20:05.047Z,23.20
2018-04-22T05:22:34.199Z,23.47
2018-04-22T05:25:03.429Z,25.43
2018-04-22T05:27:32.578Z,27.57
2018-04-22T05:30:01.838Z,25.03
2018-04-22T05:32:31.027Z,26.60
2018-04-22T05:35:01.289Z,26.90
2018-04-22T05:37:30.430Z,25.53
2018-04-22T05:40:00.421Z,29.63
2018-04-22T05:42:29.597Z,28.57
2018-04-22T05:44:58.778Z,29.90
2018-04-22T05:47:28.037Z,28.40
2018-04-22T05:49:57.269Z,32.57
2018-04-22T05:52:26.419Z,27.23
2018-04-22T05:54:55.632Z,33.30
2018-04-22T05:57:24.851Z,28.33
2018-04-22T05:59:54.029Z,33.73
2018-04-22T06:02:23.152Z,30.30
2018-04-22T06:04:52.338Z,30.70
2018-04-22T06:07:21.533Z,32.20
2018-04-22T06:09:50.669Z,31.63
2018-04-22T06:12:19.763Z,34.60
2018-04-22T06:14:48.902Z,48.67
2018-04-22T06:17:18.219Z,34.17
2018-04-22T06:19:47.448Z,36.63
2018-04-22T06:22:16.572Z,34.30
2018-04-22T06:24:45.716Z,33.63
2018-04-22T06:27:14.930Z,32.23
2018-04-22T06:29:44.054Z,35.23
2018-04-22T06:32:13.194Z,28.03
2018-04-22T06:34:42.361Z,23.90
2018-04-22T06:37:11.834Z,31.00
2018-04-22T06:39:41.067Z,28.13
2018-04-22T06:42:10.249Z,33.30
2018-04-22T06:44:39.371Z,27.27
2018-04-22T06:47:08.487Z,31.33
2018-04-22T06:49:37.602Z,24.67
2018-04-22T06:52:06.825Z,29.43
2018-04-22T06:54:36.003Z,33.13
2018-04-22T06:57:05.270Z,32.67
2018-04-22T06:59:35.210Z,31.07
2018-04-22T07:02:04.366Z,28.37
2018-04-22T07:04:34.219Z,30.83
2018-04-22T07:07:03.282Z,24.97
2018-04-22T07:09:33.705Z,24.93
2018-04-22T07:12:02.873Z,27.07
2018-04-22T07:14:32.221Z,30.53
2018-04-22T07:17:01.380Z,25.53
2018-04-22T07:19:30.578Z,33.00
2018-04-22T07:21:59.744Z,28.43
2018-04-22T07:24:28.904Z,29.63
2018-04-22T07:26:59.240Z,26.07
2018-04-22T07:29:28.349Z,27.17
2018-04-22T07:31:57.546Z,27.37
2018-04-22T07:34:26.726Z,54.93
2018-04-22T07:36:56.635Z,55.73
2018-04-22T07:39:26.023Z,41.50
2018-04-22T07:41:55.180Z,36.03
2018-04-22T07:44:24.294Z,22.37
2018-04-22T07:46:53.496Z,23.37
2018-04-22T07:49:23.349Z,25.77
2018-04-22T07:51:52.603Z,23.93
2018-04-22T07:54:21.709Z,19.50
2018-04-22T07:56:50.802Z,20.60
2018-04-22T07:59:20.506Z,24.40
2018-04-22T08:01:49.679Z,25.97
2018-04-22T08:04:19.327Z,24.53
2018-04-22T08:06:48.478Z,32.23
2018-04-22T08:09:17.605Z,29.93
2018-04-22T08:11:48.101Z,26.90
2018-04-22T08:14:17.171Z,25.30
2018-04-22T08:16:46.319Z,26.33
2018-04-22T08:19:15.421Z,29.50
2018-04-22T08:21:44.631Z,30.07
2018-04-22T08:24:13.928Z,25.57
2018-04-22T08:26:43.848Z,27.80
2018-04-22T08:29:12.959Z,26.20
2018-04-22T08:31:42.251Z,26.87
2018-04-22T08:34:11.417Z,26.27
2018-04-22T08:36:40.615Z,24.40
2018-04-22T08:39:09.892Z,25.70
2018-04-22T08:41:39.227Z,22.77
2018-04-22T08:44:08.387Z,24.33
2018-04-22T08:46:38.297Z,21.63
2018-04-22T08:49:08.195Z,23.40
2018-04-22T08:51:37.363Z,26.23
2018-04-22T08:54:06.459Z,22.30
2018-04-22T08:56:35.542Z,24.10
2018-04-22T08:59:04.839Z,23.50
2018-04-22T09:01:34.505Z,19.17
2018-04-22T09:04:03.663Z,23.23
2018-04-22T09:06:32.781Z,28.37
2018-04-22T09:09:01.937Z,20.07
2018-04-22T09:11:31.053Z,26.90
2018-04-22T09:14:00.332Z,22.53
2018-04-22T09:16:29.556Z,24.63
2018-04-22T09:18:58.714Z,31.50
2018-04-22T09:21:27.826Z,29.67
2018-04-22T09:23:56.995Z,24.67
2018-04-22T09:26:26.146Z,27.80
2018-04-22T09:28:56.306Z,29.37
2018-04-22T09:31:25.429Z,33.73
2018-04-22T09:33:54.637Z,24.63
2018-04-22T09:36:23.800Z,30.10
2018-04-22T09:38:52.919Z,37.10
2018-04-22T09:41:22.214Z,29.27
2018-04-22T09:43:52.319Z,32.80
2018-04-22T09:46:21.447Z,29.93
2018-04-22T09:48:50.635Z,31.20
2018-04-22T09:51:19.762Z,28.60
2018-04-22T09:53:49.626Z,43.20
2018-04-22T09:56:18.780Z,38.17
2018-04-22T09:58:47.925Z,35.50
2018-04-22T10:01:20.990Z,32.67
2018-04-22T10:03:50.905Z,36.00
2018-04-22T10:06:20.017Z,39.83
2018-04-22T10:08:49.192Z,30.63
2018-04-22T10:11:18.292Z,39.93
2018-04-22T10:13:47.515Z,35.63
2018-04-22T10:16:16.646Z,37.37
2018-04-22T10:18:45.885Z,38.10
2018-04-22T10:21:14.977Z,41.63
2018-04-22T10:23:44.099Z,34.80
2018-04-22T10:26:13.317Z,31.40
2018-04-22T10:28:43.216Z,32.50
2018-04-22T10:31:12.322Z,37.60
2018-04-22T10:33:41.536Z,35.17
2018-04-22T10:36:11.507Z,38.43
2018-04-22T10:38:40.922Z,34.90
2018-04-22T10:41:10.070Z,32.37
2018-04-22T10:43:39.189Z,38.67
2018-04-22T10:46:08.350Z,34.50
2018-04-22T10:48:37.419Z,42.23
2018-04-22T10:51:06.569Z,39.37
2018-04-22T10:53:35.678Z,38.10
2018-04-22T10:56:04.824Z,32.43
2018-04-22T10:58:34.053Z,37.47
2018-04-22T11:01:03.365Z,29.83
2018-04-22T11:03:32.511Z,30.07
2018-04-22T11:06:02.839Z,42.80
2018-04-22T11:08:31.924Z,39.80
2018-04-22T11:11:01.281Z,46.93
2018-04-22T11:13:30.470Z,42.53
2018-04-22T11:15:59.554Z,45.77
2018-04-22T11:18:29.471Z,29.03
2018-04-22T11:20:58.656Z,40.37
2018-04-22T11:23:27.857Z,42.43
2018-04-22T11:25:57.883Z,43.23
2018-04-22T11:28:27.083Z,45.47
2018-04-22T11:30:56.482Z,44.13
2018-04-22T11:33:25.737Z,48.63
2018-04-22T11:35:54.922Z,47.83
2018-04-22T11:38:24.135Z,42.10
2018-04-22T11:40:53.298Z,46.40
2018-04-22T11:43:23.010Z,42.73
2018-04-22T11:45:52.189Z,50.97
2018-04-22T11:48:25.106Z,43.00
2018-04-22T11:50:54.635Z,59.23
2018-04-22T11:53:24.771Z,45.63
2018-04-22T11:55:54.246Z,41.23
2018-04-22T11:58:23.888Z,40.53
2018-04-22T12:00:53.220Z,44.87
2018-04-22T12:03:23.569Z,36.00
2018-04-22T12:05:52.864Z,40.10
2018-04-22T12:08:22.902Z,41.13
2018-04-22T12:10:52.365Z,44.03
2018-04-22T12:13:23.199Z,40.00
2018-04-22T12:15:52.627Z,37.43
2018-04-22T12:18:23.523Z,40.87
2018-04-22T12:20:52.933Z,42.37
2018-04-22T12:23:23.311Z,37.27
2018-04-22T12:25:55.914Z,38.53
2018-04-22T12:28:25.181Z,28.03
2018-04-22T12:30:54.632Z,41.07
2018-04-22T12:33:23.928Z,37.67
2018-04-22T12:35:55.411Z,44.60
2018-04-22T12:38:24.919Z,40.73
2018-04-22T12:40:54.317Z,51.03
2018-04-22T12:43:23.638Z,40.60
2018-04-22T12:45:53.022Z,32.23
2018-04-22T12:48:23.946Z,57.47
2018-04-22T12:50:55.939Z,32.97
2018-04-22T12:53:26.653Z,45.80
2018-04-22T12:55:56.745Z,35.27
2018-04-22T12:58:27.020Z,39.13
2018-04-22T13:01:01.909Z,40.07
2018-04-22T13:03:32.440Z,35.97
2018-04-22T13:09:42.978Z,29.23
2018-04-22T13:12:24.201Z,32.07
2018-04-22T13:14:53.749Z,30.47
2018-04-22T13:17:23.707Z,32.63
2018-04-22T13:19:53.378Z,35.33
2018-04-22T13:22:22.750Z,32.80
2018-04-22T13:24:52.069Z,31.73
2018-04-22T13:27:22.174Z,36.20
2018-04-22T13:29:51.491Z,39.77
2018-04-22T13:32:20.763Z,36.73
2018-04-22T13:34:50.192Z,36.37
2018-04-22T13:37:23.304Z,34.80
2018-04-22T13:39:52.829Z,32.77
2018-04-22T13:48:58.554Z,45.83
2018-04-22T13:51:30.382Z,36.33
2018-04-22T13:53:59.990Z,49.93
2018-04-22T13:56:29.495Z,37.00
2018-04-22T13:58:58.971Z,34.37
2018-04-22T14:01:28.401Z,26.73
2018-04-22T14:03:57.920Z,37.73
2018-04-22T14:06:27.104Z,40.37
2018-04-22T14:08:56.364Z,35.77
2018-04-22T14:11:26.227Z,38.37
2018-04-22T14:13:55.845Z,35.77
2018-04-22T14:16:25.316Z,39.80
2018-04-22T14:18:55.040Z,37.40
2018-04-22T14:21:24.766Z,34.93
2018-04-22T14:23:54.373Z,40.83
2018-04-22T14:26:23.666Z,40.83
2018-04-22T14:28:53.166Z,36.73
2018-04-22T14:31:22.435Z,41.37
2018-04-22T14:33:53.148Z,34.77
2018-04-22T14:36:22.659Z,41.60
2018-04-22T14:38:53.123Z,35.10
2018-04-22T14:41:22.407Z,35.87
2018-04-22T14:44:02.822Z,42.50
2018-04-22T14:46:32.041Z,31.80
2018-04-22T14:49:07.035Z,37.60
2018-04-22T14:51:36.484Z,28.87
2018-04-22T14:54:05.674Z,37.30
2018-04-22T14:56:34.765Z,43.07
2018-04-22T14:59:03.904Z,37.83
2018-04-22T15:01:33.978Z,30.53
2018-04-22T15:04:03.141Z,28.97
2018-04-22T15:06:32.366Z,33.73
2018-04-22T15:09:01.618Z,28.90
2018-04-22T15:11:30.828Z,33.37
2018-04-22T15:14:03.832Z,32.10
2018-04-22T15:16:33.079Z,31.33
2018-04-22T15:19:03.025Z,26.73
2018-04-22T15:21:32.144Z,34.17
2018-04-22T15:24:01.288Z,33.83
2018-04-22T15:26:30.553Z,34.00
2018-04-22T15:28:59.745Z,26.47
2018-04-22T15:31:35.577Z,30.67
2018-04-22T15:34:06.693Z,31.43
2018-04-22T15:36:46.038Z,32.47
2018-04-22T15:39:15.130Z,34.20
2018-04-22T15:41:44.280Z,29.57
2018-04-22T15:44:14.040Z,28.77
2018-04-22T15:46:43.391Z,29.77
2018-04-22T15:49:12.844Z,28.60
2018-04-22T15:51:43.196Z,37.30
2018-04-22T15:54:12.485Z,27.37
2018-04-22T15:56:42.598Z,27.90
2018-04-22T15:59:11.722Z,32.87
2018-04-22T16:01:40.868Z,30.23
2018-04-22T16:04:10.141Z,41.97
2018-04-22T16:06:39.297Z,32.10
2018-04-22T16:09:10.428Z,31.50
2018-04-22T16:11:54.720Z,31.73
2018-04-22T16:14:24.010Z,37.53
2018-04-22T16:16:53.366Z,36.50
2018-04-22T16:19:34.586Z,35.13
2018-04-22T16:22:08.540Z,33.30
2018-04-22T16:24:37.850Z,37.93
2018-04-22T16:27:08.155Z,34.03
2018-04-22T16:29:40.276Z,32.40
2018-04-22T16:32:28.207Z,28.27
2018-04-22T16:35:04.725Z,34.85
2018-04-22T16:37:34.834Z,40.90
2018-04-22T16:40:08.178Z,33.87
2018-04-22T16:45:12.675Z,41.00
2018-04-22T16:50:15.013Z,37.77
2018-04-22T16:52:46.657Z,36.37
2018-04-22T16:55:51.181Z,31.30
2018-04-22T16:58:23.699Z,34.27
2018-04-22T17:04:33.997Z,33.63
2018-04-22T17:12:18.123Z,32.80
2018-04-22T17:14:48.827Z,35.37
2018-04-22T17:17:20.974Z,32.75
2018-04-22T17:19:51.995Z,35.78
2018-04-22T17:22:21.994Z,34.07
2018-04-22T17:24:51.577Z,34.40
2018-04-22T17:27:23.581Z,35.23
2018-04-22T17:29:55.301Z,38.47
2018-04-22T17:32:35.639Z,28.15
2018-04-22T17:35:05.713Z,35.22
2018-04-22T17:37:38.529Z,31.30
2018-04-22T17:40:13.685Z,36.38
2018-04-22T17:42:43.349Z,31.23
2018-04-22T17:45:31.875Z,31.83
2018-04-22T17:48:03.724Z,33.17
2018-04-22T17:50:33.035Z,28.67
2018-04-22T17:53:02.390Z,28.63
2018-04-22T17:55:31.719Z,39.03
2018-04-22T17:58:05.445Z,35.90
2018-04-22T18:00:34.803Z,31.43
2018-04-22T18:03:11.770Z,34.73
2018-04-22T18:05:54.779Z,39.37
2018-04-22T18:08:25.142Z,31.73
2018-04-22T18:11:13.000Z,28.97
2018-04-22T18:17:12.764Z,29.07
2018-04-22T18:20:26.308Z,29.83
2018-04-22T18:22:58.435Z,37.23
2018-04-22T18:25:38.499Z,29.92
2018-04-22T18:28:26.183Z,25.00
2018-04-22T18:30:57.184Z,31.92
2018-04-22T18:33:28.932Z,25.10
2018-04-22T18:36:01.193Z,30.08
2018-04-22T18:38:34.701Z,35.10
2018-04-22T18:43:45.549Z,28.67
2018-04-22T18:46:21.631Z,22.83
2018-04-22T18:48:51.186Z,20.55
2018-04-22T18:51:24.721Z,23.02
2018-04-22T18:56:29.891Z,21.23
2018-04-22T18:59:04.502Z,28.45
2018-04-22T19:07:14.423Z,17.50
2018-04-22T19:09:51.744Z,17.70
2018-04-22T19:15:22.463Z,21.67
2018-04-22T19:18:12.604Z,21.42
2018-04-22T19:20:47.255Z,24.00
2018-04-22T19:23:16.612Z,16.70
2018-04-22T19:25:56.032Z,18.87
2018-04-22T19:28:26.552Z,18.50
2018-04-22T19:30:57.876Z,50.65
2018-04-22T19:33:28.282Z,24.75
2018-04-22T19:35:57.767Z,40.55
2018-04-22T19:38:28.844Z,40.10
2018-04-22T19:40:58.340Z,37.75
2018-04-22T19:43:30.747Z,35.72
2018-04-22T19:46:00.532Z,41.15
2018-04-22T19:48:32.965Z,40.67
2018-04-22T19:51:03.462Z,43.80
2018-04-22T19:56:12.013Z,43.33
2018-04-22T19:58:41.402Z,44.77
2018-04-22T20:01:11.567Z,42.33
2018-04-22T20:08:54.379Z,56.07
2018-04-22T20:11:23.868Z,61.80
2018-04-22T20:13:54.297Z,45.50
2018-04-22T20:16:26.040Z,45.13
2018-04-22T20:18:59.045Z,42.97
2018-04-22T20:21:29.642Z,39.90
2018-04-22T20:24:00.214Z,44.47
2018-04-22T20:26:29.464Z,49.00
2018-04-22T20:28:58.596Z,50.57
2018-04-22T20:31:33.687Z,43.60
2018-04-22T20:34:05.686Z,55.80
2018-04-22T20:36:36.858Z,43.97
2018-04-22T20:39:08.089Z,45.90
2018-04-22T20:41:42.478Z,50.50
2018-04-22T20:44:12.960Z,50.13
2018-04-22T20:46:44.090Z,58.30
2018-04-22T20:49:13.842Z,54.90
2018-04-22T20:51:43.564Z,53.13
2018-04-22T20:54:13.045Z,55.83
2018-04-22T20:56:44.296Z,48.83
2018-04-22T20:59:14.444Z,54.47
2018-04-22T21:01:43.992Z,62.17
2018-04-22T21:04:15.426Z,46.67
2018-04-22T21:06:45.228Z,54.67
2018-04-22T21:09:17.140Z,67.00
2018-04-22T21:11:49.112Z,47.00
2018-04-22T21:14:18.812Z,45.03
2018-04-22T21:19:26.297Z,40.00
2018-04-22T21:21:57.630Z,36.57
2018-04-22T21:27:21.682Z,34.93
2018-04-22T21:29:53.641Z,28.20
2018-04-22T21:32:23.930Z,25.90
2018-04-22T21:34:53.360Z,26.40
2018-04-22T21:37:24.495Z,27.83
2018-04-22T21:39:59.390Z,22.40
2018-04-22T21:42:29.714Z,26.23
2018-04-22T21:45:02.252Z,32.03
2018-04-22T21:47:37.043Z,32.60
2018-04-22T21:50:11.115Z,30.37
2018-04-22T21:52:50.752Z,40.00
2018-04-22T21:55:21.672Z,37.57
2018-04-22T21:57:52.387Z,38.57
2018-04-22T22:00:36.581Z,40.20
2018-04-22T22:03:12.983Z,37.67
2018-04-22T22:05:43.483Z,39.23
2018-04-22T22:11:42.639Z,49.30
2018-04-22T22:14:30.260Z,60.83
2018-04-22T22:17:03.145Z,56.47
2018-04-22T22:19:35.608Z,57.27
2018-04-22T22:22:19.360Z,54.07
2018-04-22T22:24:53.382Z,67.57
2018-04-22T22:28:06.378Z,61.67
2018-04-22T22:36:53.652Z,72.83
2018-04-22T22:39:22.877Z,69.00
2018-04-22T22:41:52.787Z,74.43
2018-04-22T22:44:28.819Z,64.23
2018-04-22T22:49:38.130Z,59.33
2018-04-22T22:52:08.426Z,73.77
2018-04-22T22:54:38.013Z,65.77
2018-04-22T22:57:19.671Z,58.57
2018-04-22T22:59:51.661Z,63.63
2018-04-22T23:02:22.030Z,61.00
2018-04-22T23:04:51.241Z,48.90
2018-04-22T23:07:30.974Z,52.33
2018-04-22T23:10:00.328Z,44.73
2018-04-22T23:12:33.922Z,44.83
2018-04-22T23:15:03.725Z,53.47
2018-04-22T23:17:33.927Z,55.43
2018-04-22T23:20:03.653Z,50.50
2018-04-22T23:22:33.796Z,51.83
2018-04-22T23:25:06.437Z,55.97
2018-04-22T23:27:37.091Z,59.33
2018-04-22T23:30:07.364Z,75.97
2018-04-22T23:32:54.685Z,89.63
2018-04-22T23:35:38.388Z,85.90
2018-04-22T23:38:07.833Z,91.00
2018-04-22T23:45:53.225Z,72.70
2018-04-22T23:48:22.781Z,68.03
2018-04-22T23:50:53.215Z,74.00
2018-04-22T23:53:22.641Z,60.50
2018-04-22T23:55:53.575Z,40.43
2018-04-22T23:58:22.899Z,35.83
